Time;durP1;ratioP1;P1;durP2;ratioP2;P2;SDS_P1;SDS_P2;PMS_P1;PMS_P2;Temp;Humidity;BMP_temperature;BMP_pressure;BME280_temperature;BME280_humidity;BME280_pressure;Samples;Min_cycle;Max_cycle;Signal;HPM_P1;HPM_P2
2022/04/18 00:01:16;;;;;;;3.17;2.40;;;;;;;8.85;86.83;99548.06;4990443;28;20207;-80
2022/04/18 00:03:45;;;;;;;3.70;2.33;;;;;;;8.84;87.00;99556.06;4988606;28;20211;-80
2022/04/18 00:06:13;;;;;;;3.93;2.50;;;;;;;8.55;87.79;99549.59;4986586;28;20201;-81
2022/04/18 00:08:44;;;;;;;4.97;2.23;;;;;;;8.61;88.43;99551.94;4990213;28;20217;-81
2022/04/18 00:11:18;;;;;;;2.80;2.07;;;;;;;8.48;88.94;99548.19;5000138;28;20262;-81
2022/04/18 00:13:51;;;;;;;3.87;2.57;;;;;;;8.33;89.55;99547.13;5066464;28;20207;-82
2022/04/18 00:16:27;;;;;;;3.30;2.40;;;;;;;8.36;89.66;99546.16;5069777;28;20188;-80
2022/04/18 00:18:59;;;;;;;2.97;2.20;;;;;;;8.37;90.16;99540.78;4983622;28;20200;-80
2022/04/18 00:21:28;;;;;;;2.33;2.13;;;;;;;8.51;89.63;99534.84;4992971;28;20387;-80
2022/04/18 00:23:56;;;;;;;3.57;2.20;;;;;;;8.39;89.27;99528.38;5008697;28;20205;-80
2022/04/18 00:26:29;;;;;;;3.93;2.30;;;;;;;8.51;89.08;99530.44;5004663;28;20202;-80
2022/04/18 00:28:58;;;;;;;2.70;2.20;;;;;;;8.58;88.96;99531.81;5004962;28;20190;-80
2022/04/18 00:31:26;;;;;;;3.40;2.30;;;;;;;8.52;88.75;99521.59;5001366;28;20210;-80
2022/04/18 00:33:55;;;;;;;4.67;2.37;;;;;;;8.53;88.22;99528.56;5002513;28;20222;-80
2022/04/18 00:36:23;;;;;;;2.97;2.27;;;;;;;8.53;88.47;99528.56;5016937;28;20270;-80
2022/04/18 00:38:52;;;;;;;3.10;2.20;;;;;;;8.37;89.88;99524.13;4923031;28;20192;-80
2022/04/18 00:41:20;;;;;;;4.40;2.60;;;;;;;8.24;90.16;99537.88;4964470;28;20196;-80
2022/04/18 00:43:51;;;;;;;4.13;2.30;;;;;;;8.09;91.52;99521.91;4966076;28;20670;-80
2022/04/18 00:46:20;;;;;;;5.60;2.43;;;;;;;7.91;92.54;99529.81;4932453;29;20205;-80
2022/04/18 00:48:50;;;;;;;3.37;2.40;;;;;;;7.97;93.53;99518.09;4909653;29;20218;-80
2022/04/18 00:51:23;;;;;;;8.40;2.40;;;;;;;8.11;91.99;99520.09;4910579;29;20233;-81
2022/04/18 00:53:57;;;;;;;2.93;2.30;;;;;;;8.14;92.28;99515.50;4838813;29;20200;-80
2022/04/18 00:56:28;;;;;;;4.47;2.33;;;;;;;8.34;91.33;99519.81;4845904;29;20359;-79
2022/04/18 00:59:00;;;;;;;4.53;2.10;;;;;;;8.44;89.44;99513.19;4872270;29;20203;-80
2022/04/18 01:01:29;;;;;;;2.97;2.10;;;;;;;8.08;92.22;99505.25;4876232;29;20207;-81
2022/04/18 01:03:58;;;;;;;2.93;2.13;;;;;;;7.79;94.31;99505.78;4888959;29;20204;-80
2022/04/18 01:06:32;;;;;;;2.70;2.13;;;;;;;7.76;95.77;99498.88;4944940;28;20203;-80
2022/04/18 01:09:02;;;;;;;2.63;1.90;;;;;;;7.70;95.46;99501.78;4984613;28;20230;-81
2022/04/18 01:11:30;;;;;;;4.57;3.50;;;;;;;7.53;97.83;99499.94;4992095;28;20191;-80
2022/04/18 01:14:02;;;;;;;4.20;2.97;;;;;;;7.57;98.55;99496.22;4985048;28;20202;-80
2022/04/18 01:16:31;;;;;;;3.77;2.23;;;;;;;7.54;98.89;99501.66;4991760;28;20195;-80
2022/04/18 01:18:59;;;;;;;4.30;2.50;;;;;;;7.42;100.00;99491.66;5040617;28;20208;-79
2022/04/18 01:21:29;;;;;;;3.97;2.23;;;;;;;7.33;100.00;99499.97;5067997;28;20276;-81
2022/04/18 01:23:59;;;;;;;2.50;2.30;;;;;;;7.11;100.00;99494.81;5070493;28;20195;-80
2022/04/18 01:29:14;;;;;;;4.10;2.20;;;;;;;7.35;100.00;99493.75;5073507;28;20212;-80
2022/04/18 01:31:44;;;;;;;3.97;2.10;;;;;;;7.33;100.00;99492.94;5064247;28;20205;-80
2022/04/18 01:34:15;;;;;;;3.23;2.37;;;;;;;7.16;100.00;99492.84;5062985;28;20220;-80
2022/04/18 01:36:46;;;;;;;4.23;2.50;;;;;;;7.32;100.00;99491.22;5061926;28;20208;-80
2022/04/18 01:39:15;;;;;;;3.47;2.47;;;;;;;7.12;100.00;99492.13;5008367;28;20256;-80
2022/04/18 01:41:45;;;;;;;4.60;2.60;;;;;;;7.16;100.00;99490.22;5007011;28;20202;-80
2022/04/18 01:44:14;;;;;;;3.00;2.30;;;;;;;7.13;100.00;99492.97;5002859;28;20206;-80
2022/04/18 01:46:43;;;;;;;3.63;2.50;;;;;;;6.84;100.00;99487.19;5004992;28;20198;-81
2022/04/18 01:49:11;;;;;;;2.80;2.17;;;;;;;6.92;100.00;99486.03;5006007;28;20223;-81
2022/04/18 01:51:40;;;;;;;3.57;2.23;;;;;;;6.96;100.00;99483.19;4978433;28;20234;-80
2022/04/18 01:54:10;;;;;;;5.13;2.20;;;;;;;6.82;100.00;99472.41;4970941;28;20206;-80
2022/04/18 01:56:39;;;;;;;2.50;2.10;;;;;;;6.91;100.00;99473.78;4967045;28;20203;-80
2022/04/18 01:59:08;;;;;;;4.07;2.37;;;;;;;6.90;100.00;99467.66;4973852;28;20206;-82
2022/04/18 02:01:37;;;;;;;3.00;2.23;;;;;;;7.04;100.00;99472.31;4970857;28;20205;-81
2022/04/18 02:04:06;;;;;;;4.30;2.53;;;;;;;7.04;100.00;99464.41;4978328;28;20221;-81
2022/04/18 02:06:34;;;;;;;3.27;2.37;;;;;;;7.12;100.00;99462.28;4933683;29;20205;-80
2022/04/18 02:09:03;;;;;;;3.87;2.17;;;;;;;7.09;100.00;99462.44;4927582;29;20250;-80
2022/04/18 02:11:33;;;;;;;3.43;2.10;;;;;;;6.96;100.00;99461.28;4940412;28;20198;-81
2022/04/18 02:14:01;;;;;;;2.73;2.30;;;;;;;6.56;100.00;99458.63;4931489;29;20220;-80
2022/04/18 02:16:30;;;;;;;3.57;2.23;;;;;;;6.64;100.00;99452.13;4926736;29;20209;-80
2022/04/18 02:19:00;;;;;;;4.53;2.10;;;;;;;6.40;100.00;99461.94;4931274;29;20205;-80
2022/04/18 02:21:28;;;;;;;3.47;2.30;;;;;;;6.59;100.00;99452.34;4939314;29;20248;-80
2022/04/18 02:23:57;;;;;;;3.40;2.70;;;;;;;6.56;100.00;99442.81;4946378;28;20209;-80
2022/04/18 02:26:28;;;;;;;3.80;2.60;;;;;;;6.75;100.00;99437.59;4990693;28;20215;-80
2022/04/18 02:29:00;;;;;;;3.70;2.60;;;;;;;6.91;100.00;99434.28;4988325;28;20211;-80
2022/04/18 02:32:47;;;;;;;5.13;2.30;;;;;;;6.88;100.00;99430.03;5007261;28;20188;-79
2022/04/18 02:34:22;;;;;;;2.93;2.20;;;;;;;6.98;100.00;99430.47;5034350;28;20201;-80
2022/04/18 02:36:51;;;;;;;3.43;2.33;;;;;;;7.03;100.00;99424.06;5028262;28;20198;-80
2022/04/18 02:39:24;;;;;;;3.30;2.27;;;;;;;6.85;100.00;99420.50;5025655;28;20225;-80
2022/04/18 02:41:53;;;;;;;2.50;2.20;;;;;;;6.78;100.00;99424.31;5030821;28;20194;-79
2022/04/18 02:44:23;;;;;;;4.30;2.40;;;;;;;6.61;100.00;99418.94;5029564;28;20216;-79
2022/04/18 02:46:54;;;;;;;3.00;2.20;;;;;;;6.57;100.00;99420.00;5028132;28;20201;-80
2022/04/18 02:49:25;;;;;;;4.07;2.43;;;;;;;6.53;100.00;99421.88;5031389;28;20222;-80
2022/04/18 02:51:53;;;;;;;5.17;2.47;;;;;;;6.31;100.00;99416.69;5041585;28;20217;-80
2022/04/18 02:54:22;;;;;;;3.20;2.70;;;;;;;6.19;100.00;99421.63;5068065;28;20207;-79
2022/04/18 02:56:52;;;;;;;3.30;2.30;;;;;;;6.35;100.00;99409.50;5076114;28;20192;-80
2022/04/18 02:59:22;;;;;;;4.27;2.70;;;;;;;6.28;100.00;99414.22;5069833;28;20206;-80
2022/04/18 03:01:50;;;;;;;5.80;2.50;;;;;;;6.27;100.00;99408.97;5074583;28;20230;-80
2022/04/18 03:04:23;;;;;;;2.30;2.10;;;;;;;6.13;100.00;99412.22;5069401;28;20207;-80
2022/04/18 03:06:53;;;;;;;3.37;2.33;;;;;;;6.11;100.00;99407.94;5068345;28;20200;-80
2022/04/18 03:09:21;;;;;;;3.27;2.20;;;;;;;6.12;100.00;99413.13;5066227;28;20299;-80
2022/04/18 03:11:50;;;;;;;3.67;2.20;;;;;;;6.26;100.00;99415.16;5063192;28;20192;-80
2022/04/18 03:14:18;;;;;;;3.23;2.47;;;;;;;5.96;100.00;99417.31;4991770;28;20203;-80
2022/04/18 03:16:50;;;;;;;3.00;2.00;;;;;;;5.71;100.00;99404.28;5004005;28;20208;-80
2022/04/18 03:19:19;;;;;;;4.93;2.20;;;;;;;5.84;100.00;99405.50;5011318;28;20208;-80
2022/04/18 03:21:50;;;;;;;3.93;2.17;;;;;;;5.71;100.00;99407.78;5010899;28;20210;-80
2022/04/18 03:24:19;;;;;;;2.87;2.10;;;;;;;5.84;100.00;99405.50;5008405;28;20202;-80
2022/04/18 03:26:51;;;;;;;2.63;1.87;;;;;;;5.88;100.00;99406.22;5004850;28;20253;-81
2022/04/18 03:29:20;;;;;;;3.60;2.20;;;;;;;5.89;100.00;99400.91;5010452;28;20219;-80
2022/04/18 03:31:52;;;;;;;3.80;2.10;;;;;;;6.08;100.00;99408.94;5011749;28;20207;-80
2022/04/18 03:34:23;;;;;;;3.97;2.10;;;;;;;6.12;100.00;99396.50;4999720;28;20185;-80
2022/04/18 03:39:52;;;;;;;3.83;2.20;;;;;;;6.10;100.00;99404.47;4998042;28;20195;-79
2022/04/18 03:42:29;;;;;;;3.20;2.30;;;;;;;5.89;100.00;99405.31;4987698;28;20207;-80
2022/04/18 03:44:59;;;;;;;3.13;2.00;;;;;;;5.77;100.00;99406.66;4974543;28;20215;-80
2022/04/18 03:47:34;;;;;;;3.10;2.20;;;;;;;5.79;100.00;99399.59;4966782;28;20207;-80
2022/04/18 03:50:03;;;;;;;2.77;2.47;;;;;;;5.66;100.00;99396.56;4971061;28;20223;-80
2022/04/18 03:52:37;;;;;;;2.67;2.20;;;;;;;5.77;100.00;99400.53;4971446;28;20235;-80
2022/04/18 03:55:08;;;;;;;3.90;2.20;;;;;;;5.85;100.00;99382.69;5008429;28;20250;-80
2022/04/18 03:57:40;;;;;;;3.87;2.30;;;;;;;5.93;100.00;99386.75;5048704;28;20205;-80
2022/04/18 04:00:12;;;;;;;2.97;2.20;;;;;;;5.90;100.00;99383.38;5049737;28;20648;-80
2022/04/18 04:02:47;;;;;;;2.97;2.30;;;;;;;5.57;100.00;99383.81;5044206;28;20190;-80
2022/04/18 04:05:15;;;;;;;3.00;2.23;;;;;;;5.55;100.00;99384.78;5049380;28;20328;-80
2022/04/18 04:07:47;;;;;;;2.30;2.00;;;;;;;5.64;100.00;99381.78;5050275;28;20212;-80
2022/04/18 04:10:16;;;;;;;5.07;2.27;;;;;;;5.69;100.00;99385.06;5053383;28;20213;-80
2022/04/18 04:12:45;;;;;;;2.87;2.17;;;;;;;5.53;100.00;99378.75;5048212;28;20208;-80
2022/04/18 04:15:13;;;;;;;3.03;2.20;;;;;;;5.59;100.00;99391.63;5051713;28;20197;-80
2022/04/18 04:17:43;;;;;;;3.47;2.20;;;;;;;5.74;100.00;99386.63;4989551;28;20207;-80
2022/04/18 04:20:22;;;;;;;3.97;2.20;;;;;;;5.53;100.00;99389.25;4992476;28;20202;-80
2022/04/18 04:22:51;;;;;;;4.20;2.07;;;;;;;5.63;100.00;99377.47;4990537;28;20195;-80
2022/04/18 04:25:20;;;;;;;6.07;2.13;;;;;;;5.50;100.00;99384.09;4931160;29;20213;-80
2022/04/18 04:27:49;;;;;;;4.83;2.13;;;;;;;5.59;100.00;99379.34;4903873;29;20737;-79
2022/04/18 04:30:17;;;;;;;2.70;1.93;;;;;;;5.49;100.00;99385.03;4931011;29;20221;-80
2022/04/18 04:32:50;;;;;;;2.50;2.10;;;;;;;5.51;100.00;99380.59;4927286;29;20217;-80
2022/04/18 04:35:21;;;;;;;11.67;6.90;;;;;;;5.01;100.00;99383.38;4942363;28;20210;-80
2022/04/18 04:37:49;;;;;;;5.37;3.13;;;;;;;5.32;100.00;99370.81;4964068;28;20206;-80
2022/04/18 04:40:18;;;;;;;4.23;2.47;;;;;;;5.37;100.00;99378.50;4969132;28;20646;-79
2022/04/18 04:42:47;;;;;;;3.33;2.20;;;;;;;5.30;100.00;99377.00;4980831;28;20212;-80
2022/04/18 04:45:18;;;;;;;5.07;2.40;;;;;;;5.21;100.00;99388.75;5048221;28;20200;-80
2022/04/18 04:47:47;;;;;;;4.17;2.30;;;;;;;5.01;100.00;99381.59;5043494;28;20208;-80
2022/04/18 04:50:16;;;;;;;4.73;2.40;;;;;;;5.28;100.00;99371.81;5047962;28;20251;-80
2022/04/18 04:52:45;;;;;;;3.20;2.30;;;;;;;5.24;100.00;99378.13;5048232;28;20208;-79
2022/04/18 04:55:17;;;;;;;4.00;2.20;;;;;;;5.17;100.00;99372.25;5044825;28;20204;-80
2022/04/18 04:57:46;;;;;;;6.10;2.90;;;;;;;4.99;100.00;99374.72;5003031;28;20201;-79
2022/04/18 05:00:15;;;;;;;4.80;2.23;;;;;;;4.92;100.00;99374.06;5049622;28;20272;-79
2022/04/18 05:02:49;;;;;;;4.00;2.53;;;;;;;5.04;100.00;99376.25;4950293;29;20747;-80
2022/04/18 05:05:18;;;;;;;4.00;2.50;;;;;;;5.04;100.00;99375.41;4949528;29;20207;-79
2022/04/18 05:07:50;;;;;;;3.97;2.13;;;;;;;4.81;100.00;99376.25;4945156;29;20252;-80
2022/04/18 05:10:19;;;;;;;2.73;2.13;;;;;;;4.73;100.00;99373.03;4918369;29;20220;-80
2022/04/18 05:12:55;;;;;;;3.37;2.20;;;;;;;4.69;100.00;99390.69;4929486;29;20241;-79
2022/04/18 05:15:30;;;;;;;3.40;2.33;;;;;;;4.92;100.00;99387.19;4929984;29;20708;-80
2022/04/18 05:18:00;;;;;;;2.97;2.23;;;;;;;5.06;100.00;99386.69;4892652;29;20244;-79
2022/04/18 05:20:31;;;;;;;3.07;2.40;;;;;;;5.09;100.00;99386.56;4915871;28;20196;-79
2022/04/18 05:23:01;;;;;;;3.83;3.00;;;;;;;5.08;100.00;99401.47;4968504;28;20229;-81
2022/04/18 05:25:31;;;;;;;3.43;2.53;;;;;;;5.00;100.00;99392.16;4972618;28;20196;-79
2022/04/18 05:28:00;;;;;;;2.67;2.00;;;;;;;4.94;100.00;99387.16;4970145;28;20279;-80
2022/04/18 05:30:36;;;;;;;3.57;2.20;;;;;;;5.01;100.00;99386.00;4981280;28;20230;-80
2022/04/18 05:33:07;;;;;;;3.10;2.60;;;;;;;5.07;100.00;99391.03;5008432;28;20218;-80
2022/04/18 05:35:36;;;;;;;4.27;2.60;;;;;;;4.87;100.00;99395.25;5026047;28;20252;-79
2022/04/18 05:38:07;;;;;;;7.47;2.40;;;;;;;5.28;100.00;99389.34;5052739;28;20204;-81
2022/04/18 05:40:39;;;;;;;2.40;2.20;;;;;;;5.43;100.00;99387.00;5050051;28;20197;-82
2022/04/18 05:43:08;;;;;;;3.67;2.03;;;;;;;5.44;100.00;99387.84;5054069;28;20671;-80
2022/04/18 05:45:38;;;;;;;7.63;2.23;;;;;;;5.50;100.00;99386.72;5048486;28;20219;-80
2022/04/18 05:48:10;;;;;;;5.80;2.30;;;;;;;5.61;100.00;99382.78;5056893;28;20247;-80
2022/04/18 05:50:45;;;;;;;5.13;2.70;;;;;;;5.72;100.00;99384.97;5052004;28;20227;-80
2022/04/18 05:53:14;;;;;;;5.23;2.53;;;;;;;5.75;100.00;99385.69;5048368;28;20346;-79
2022/04/18 05:55:46;;;;;;;4.03;2.40;;;;;;;5.76;100.00;99389.19;5048909;28;20197;-80
2022/04/18 05:58:15;;;;;;;4.73;2.53;;;;;;;5.74;100.00;99388.38;5052958;28;20201;-79
2022/04/18 06:00:49;;;;;;;3.77;2.40;;;;;;;5.92;100.00;99384.19;5009056;28;20205;-80
2022/04/18 06:03:19;;;;;;;3.73;2.13;;;;;;;5.99;100.00;99385.66;5010117;28;20244;-80
2022/04/18 06:05:48;;;;;;;3.70;2.60;;;;;;;6.23;100.00;99387.22;5006742;28;20203;-80
2022/04/18 06:08:16;;;;;;;3.13;2.40;;;;;;;6.41;100.00;99382.09;5005434;28;20558;-79
2022/04/18 06:10:48;;;;;;;3.17;2.60;;;;;;;6.50;100.00;99394.88;5005089;28;20210;-80
2022/04/18 06:13:20;;;;;;;3.43;2.50;;;;;;;6.77;100.00;99387.53;5007370;28;20217;-81
2022/04/18 06:15:52;;;;;;;4.07;2.30;;;;;;;6.91;100.00;99379.84;5002590;28;20202;-80
2022/04/18 06:18:29;;;;;;;2.97;2.50;;;;;;;6.80;100.00;99377.72;5011019;28;20200;-80
2022/04/18 06:20:58;;;;;;;3.77;2.90;;;;;;;6.99;100.00;99376.88;5046456;28;20268;-80
2022/04/18 06:23:27;;;;;;;4.43;2.30;;;;;;;7.24;100.00;99376.56;5048982;28;20255;-80
2022/04/18 06:25:55;;;;;;;3.57;2.37;;;;;;;7.41;100.00;99379.28;5052796;28;20185;-80
2022/04/18 06:28:33;;;;;;;3.80;2.47;;;;;;;7.63;100.00;99379.13;5047439;28;20246;-80
2022/04/18 06:31:02;;;;;;;3.90;2.53;;;;;;;7.69;100.00;99382.28;4987957;28;20298;-80
2022/04/18 06:33:34;;;;;;;3.83;2.67;;;;;;;7.77;100.00;99381.94;4985359;28;20213;-81
2022/04/18 06:36:06;;;;;;;2.90;2.50;;;;;;;7.88;100.00;99384.88;4973374;28;20278;-81
2022/04/18 06:38:35;;;;;;;4.77;2.60;;;;;;;8.11;100.00;99393.47;4989072;28;20654;-81
2022/04/18 06:41:04;;;;;;;3.70;2.43;;;;;;;7.99;100.00;99387.84;4982810;28;20195;-81
2022/04/18 06:43:33;;;;;;;3.83;2.60;;;;;;;8.17;100.00;99391.34;4984077;28;20250;-81
2022/04/18 06:46:02;;;;;;;3.60;2.70;;;;;;;8.45;100.00;99389.97;4984033;28;20295;-80
2022/04/18 06:48:33;;;;;;;2.80;2.27;;;;;;;8.51;100.00;99393.16;5001165;28;20189;-80
2022/04/18 06:51:04;;;;;;;3.50;2.50;;;;;;;8.65;100.00;99386.28;5041760;28;20244;-80
2022/04/18 06:53:32;;;;;;;3.70;2.50;;;;;;;8.87;100.00;99389.50;5047048;28;20712;-80
2022/04/18 06:58:49;;;;;;;3.13;2.40;;;;;;;9.26;100.00;99385.63;5053309;28;20193;-80
2022/04/18 07:01:19;;;;;;;2.83;2.50;;;;;;;9.42;100.00;99394.44;5053413;28;20189;-80
2022/04/18 07:03:51;;;;;;;4.10;2.63;;;;;;;9.50;100.00;99391.38;5047136;28;20193;-80
2022/04/18 07:06:23;;;;;;;3.50;2.47;;;;;;;9.66;100.00;99394.88;4919617;29;20224;-81
2022/04/18 07:08:53;;;;;;;3.67;2.60;;;;;;;9.67;100.00;99392.13;4915656;29;20297;-80
2022/04/18 07:11:26;;;;;;;3.37;2.20;;;;;;;9.93;100.00;99392.41;4912899;29;20225;-81
2022/04/18 07:13:57;;;;;;;4.93;2.63;;;;;;;9.85;100.00;99392.88;4914280;29;20213;-80
2022/04/18 07:16:29;;;;;;;4.87;2.70;;;;;;;9.91;100.00;99403.09;4912135;29;20308;-80
2022/04/18 07:19:03;;;;;;;3.47;2.23;;;;;;;10.04;100.00;99388.25;4915513;29;20197;-81
2022/04/18 07:21:34;;;;;;;4.47;2.30;;;;;;;10.17;100.00;99382.22;4910265;29;20212;-81
2022/04/18 07:24:06;;;;;;;4.37;3.43;;;;;;;10.15;99.57;99384.09;4942370;28;20202;-80
2022/04/18 07:26:35;;;;;;;3.90;2.80;;;;;;;10.50;97.67;99387.31;5031118;28;20299;-81
2022/04/18 07:29:08;;;;;;;5.50;2.27;;;;;;;10.65;94.91;99388.22;5032938;28;20204;-81
2022/04/18 07:31:37;;;;;;;4.07;2.63;;;;;;;10.58;95.08;99380.63;4990370;28;20230;-80
2022/04/18 07:34:19;;;;;;;3.53;2.27;;;;;;;10.82;92.27;99374.78;4989127;28;20207;-80
2022/04/18 07:36:50;;;;;;;2.73;2.20;;;;;;;11.01;90.34;99378.00;4991614;28;20211;-81
2022/04/18 07:39:25;;;;;;;3.90;2.67;;;;;;;11.12;90.21;99378.19;4970804;28;20520;-81
2022/04/18 07:41:58;;;;;;;3.33;2.50;;;;;;;11.16;89.08;99373.53;4967452;28;20231;-80
2022/04/18 07:44:29;;;;;;;5.03;2.53;;;;;;;11.33;89.00;99377.78;4901779;29;20206;-81
2022/04/18 07:46:59;;;;;;;5.57;2.37;;;;;;;11.45;86.65;99369.03;4842804;29;20212;-81
2022/04/18 07:49:34;;;;;;;4.77;2.70;;;;;;;11.43;85.37;99377.09;4840753;29;20204;-81
2022/04/18 07:52:08;;;;;;;2.70;2.30;;;;;;;11.51;83.94;99376.59;4808923;29;20225;-81
2022/04/18 07:54:48;;;;;;;2.87;2.40;;;;;;;11.44;83.66;99373.50;4797053;29;20253;-81
2022/04/18 07:57:19;;;;;;;3.00;2.00;;;;;;;11.68;82.71;99378.19;4802165;29;20213;-81
2022/04/18 07:59:55;;;;;;;2.40;2.10;;;;;;;11.83;81.80;99376.34;4792232;29;20214;-81
2022/04/18 08:02:29;;;;;;;4.30;2.00;;;;;;;11.77;82.94;99382.84;4762369;30;20241;-81
2022/04/18 08:05:03;;;;;;;3.07;2.17;;;;;;;11.78;81.55;99384.59;4770879;29;20211;-81
2022/04/18 08:07:40;;;;;;;5.73;2.47;;;;;;;11.90;82.61;99382.97;4755093;30;20314;-81
2022/04/18 08:10:20;;;;;;;3.10;2.27;;;;;;;12.30;77.11;99379.34;4808954;29;20205;-81
2022/04/18 08:12:50;;;;;;;3.20;2.20;;;;;;;12.46;68.74;99383.63;4820299;29;20235;-81
2022/04/18 08:15:27;;;;;;;4.27;2.43;;;;;;;12.76;63.26;99385.97;4833526;29;20287;-81
2022/04/18 08:17:58;;;;;;;6.03;2.80;;;;;;;12.01;59.28;99386.59;4796597;29;20199;-81
2022/04/18 08:20:32;;;;;;;4.37;2.47;;;;;;;11.97;58.26;99389.56;4820025;29;20272;-82
2022/04/18 08:23:01;;;;;;;4.37;2.70;;;;;;;12.20;56.37;99393.34;4789259;29;20286;-80
2022/04/18 08:25:29;;;;;;;4.87;2.87;;;;;;;11.98;56.30;99385.97;4787462;29;20207;-80
2022/04/18 08:27:58;;;;;;;3.57;2.53;;;;;;;12.26;59.07;99385.81;4773732;29;20253;-81
2022/04/18 08:30:27;;;;;;;6.30;3.10;;;;;;;12.28;57.46;99383.91;4786318;29;20214;-81
2022/04/18 08:32:57;;;;;;;4.87;2.80;;;;;;;12.46;56.36;99375.66;4787125;29;20302;-80
2022/04/18 08:35:26;;;;;;;4.53;2.67;;;;;;;12.64;52.94;99376.19;4794717;29;20209;-80
2022/04/18 08:37:57;;;;;;;3.23;2.60;;;;;;;12.47;52.62;99367.56;4804849;29;20209;-79
2022/04/18 08:40:26;;;;;;;3.77;2.80;;;;;;;12.65;53.24;99362.81;4809779;29;20195;-79
2022/04/18 08:42:56;;;;;;;4.40;2.50;;;;;;;12.56;54.96;99366.09;4907453;29;20198;-79
2022/04/18 08:45:27;;;;;;;4.13;2.73;;;;;;;12.86;54.73;99366.63;4951947;28;20218;-80
2022/04/18 08:53:33;;;;;;;3.93;2.30;;;;;;;13.36;52.94;99372.00;5012074;28;20190;-80
2022/04/18 08:56:01;;;;;;;3.37;2.50;;;;;;;13.25;53.04;99361.28;5006423;28;20198;-80
2022/04/18 08:58:30;;;;;;;4.27;2.43;;;;;;;13.78;51.71;99367.16;5013798;28;20224;-80
2022/04/18 09:01:01;;;;;;;5.80;2.50;;;;;;;14.06;50.85;99358.81;5009439;28;20202;-80
2022/04/18 09:03:34;;;;;;;5.27;3.17;;;;;;;14.42;49.75;99355.19;5002767;28;20229;-80
2022/04/18 09:06:10;;;;;;;5.43;2.47;;;;;;;14.64;48.48;99349.06;5011973;28;20213;-80
2022/04/18 09:08:51;;;;;;;4.63;2.50;;;;;;;14.48;47.59;99351.25;5004419;28;20263;-80
2022/04/18 09:11:31;;;;;;;4.83;2.57;;;;;;;14.54;49.79;99348.09;5005134;28;20206;-80
2022/04/18 09:14:06;;;;;;;3.83;2.80;;;;;;;15.27;48.16;99341.44;4929488;29;20204;-80
2022/04/18 09:16:36;;;;;;;4.43;2.53;;;;;;;15.45;46.08;99339.97;4929564;29;20719;-80
2022/04/18 09:19:11;;;;;;;5.40;2.43;;;;;;;15.34;45.88;99342.63;4959707;28;20280;-80
2022/04/18 09:21:44;;;;;;;3.53;2.70;;;;;;;15.12;46.90;99335.50;4988012;28;20199;-80
2022/04/18 09:27:15;;;;;;;4.07;2.37;;;;;;;15.83;45.87;99336.00;4990960;28;20249;-80
2022/04/18 09:29:44;;;;;;;5.83;2.60;;;;;;;15.76;46.67;99330.31;4931621;29;20212;-80
2022/04/18 09:32:15;;;;;;;4.43;2.60;;;;;;;16.26;44.96;99325.22;4967761;28;20225;-81
2022/04/18 09:34:44;;;;;;;7.47;3.27;;;;;;;16.38;44.09;99326.84;4980847;28;20199;-80
2022/04/18 09:37:15;;;;;;;3.40;2.50;;;;;;;16.09;44.84;99325.81;5003005;28;20282;-81
2022/04/18 09:39:51;;;;;;;4.87;2.60;;;;;;;16.18;45.16;99322.34;5007407;28;20655;-81
2022/04/18 09:42:22;;;;;;;6.83;2.97;;;;;;;16.64;44.25;99313.94;5009417;28;20244;-81
2022/04/18 09:44:53;;;;;;;3.47;2.60;;;;;;;16.73;42.93;99309.63;5006596;28;20225;-81
2022/04/18 09:47:25;;;;;;;4.80;2.60;;;;;;;16.06;43.89;99302.03;4976119;28;20213;-81
2022/04/18 09:49:54;;;;;;;4.20;2.63;;;;;;;16.68;43.86;99299.31;5014407;28;20497;-81
2022/04/18 09:52:30;;;;;;;2.60;2.20;;;;;;;16.75;43.01;99303.16;5010663;28;20229;-82
2022/04/18 09:55:03;;;;;;;5.87;3.67;;;;;;;16.90;42.89;99300.16;5004766;28;20209;-81
2022/04/18 09:57:31;;;;;;;2.87;2.37;;;;;;;16.64;43.68;99303.22;4972190;28;20207;-81
2022/04/18 10:00:00;;;;;;;6.53;3.00;;;;;;;16.97;43.12;99299.44;4965015;28;20439;-80
2022/04/18 10:02:30;;;;;;;3.47;2.53;;;;;;;17.26;42.73;99296.00;4930798;29;20233;-81
2022/04/18 10:05:03;;;;;;;4.13;2.40;;;;;;;17.12;44.21;99291.91;4931899;29;20259;-80
2022/04/18 10:07:32;;;;;;;3.53;2.23;;;;;;;16.78;43.95;99299.38;4950781;29;20208;-81
2022/04/18 10:10:05;;;;;;;4.30;2.40;;;;;;;16.98;43.95;99292.25;4947890;29;20226;-80
2022/04/18 10:12:36;;;;;;;3.97;2.90;;;;;;;16.86;43.44;99289.69;4950510;29;20259;-81
2022/04/18 10:15:09;;;;;;;3.90;2.70;;;;;;;17.29;42.71;99295.75;4952519;29;20298;-81
2022/04/18 10:17:43;;;;;;;3.47;2.50;;;;;;;17.60;41.62;99291.16;4948643;29;20240;-80
2022/04/18 10:20:24;;;;;;;5.27;2.50;;;;;;;17.60;40.42;99286.66;4950298;29;20220;-81
2022/04/18 10:23:11;;;;;;;4.30;2.50;;;;;;;17.15;41.71;99281.75;4998086;28;20281;-81
2022/04/18 10:26:00;;;;;;;2.83;2.10;;;;;;;17.84;40.16;99283.56;5006404;28;20199;-81
2022/04/18 10:28:35;;;;;;;4.03;2.33;;;;;;;17.59;40.90;99282.28;5026792;28;20198;-81
2022/04/18 10:31:10;;;;;;;5.40;2.70;;;;;;;17.87;40.28;99274.44;5024884;28;20202;-80
2022/04/18 10:33:40;;;;;;;4.97;2.57;;;;;;;17.82;40.59;99274.00;5031206;28;20225;-81
2022/04/18 10:36:09;;;;;;;3.83;2.30;;;;;;;16.93;43.40;99263.25;5027739;28;20220;-81
2022/04/18 10:38:41;;;;;;;3.47;2.60;;;;;;;17.35;42.53;99261.22;5025868;28;20201;-81
2022/04/18 10:44:11;;;;;;;4.87;2.23;;;;;;;17.11;41.83;99247.38;5126223;27;20962;-81
2022/04/18 10:46:42;;;;;;;3.60;2.40;;;;;;;16.29;44.50;99250.13;5085800;28;20207;-81
2022/04/18 10:49:23;;;;;;;4.33;2.80;;;;;;;16.76;43.03;99242.47;5091051;28;20925;-81
2022/04/18 10:51:53;;;;;;;3.10;2.07;;;;;;;17.63;41.55;99243.50;5092758;28;20209;-81
2022/04/18 10:54:25;;;;;;;4.27;2.57;;;;;;;17.93;40.23;99236.31;5093002;28;20199;-80
2022/04/18 10:56:56;;;;;;;4.10;2.20;;;;;;;17.86;40.62;99233.38;5088924;28;20195;-82
2022/04/18 10:59:32;;;;;;;3.33;2.67;;;;;;;18.35;41.24;99228.78;5088930;28;20211;-81
2022/04/18 11:02:07;;;;;;;2.80;2.23;;;;;;;18.79;39.38;99221.81;5097112;27;20651;-81
2022/04/18 11:04:46;;;;;;;4.87;2.33;;;;;;;19.05;38.78;99218.44;5087639;28;20204;-81
2022/04/18 11:07:15;;;;;;;2.50;1.93;;;;;;;17.87;37.52;99221.69;5094174;28;20195;-81
2022/04/18 11:09:48;;;;;;;2.63;1.67;;;;;;;18.72;36.70;99214.50;5094348;28;20211;-81
2022/04/18 11:12:24;;;;;;;3.10;2.00;;;;;;;18.60;36.74;99205.78;5086585;28;20290;-81
2022/04/18 11:15:03;;;;;;;4.23;1.80;;;;;;;19.39;36.84;99205.19;5096949;28;20300;-81
2022/04/18 11:17:39;;;;;;;2.67;1.83;;;;;;;19.91;36.84;99200.81;5099367;27;20207;-81
2022/04/18 11:20:30;;;;;;;2.37;1.70;;;;;;;20.20;33.69;99202.38;5023397;28;20193;-81
2022/04/18 11:23:26;;;;;;;2.17;1.73;;;;;;;20.20;32.94;99191.63;5053432;28;20240;-81
2022/04/18 11:25:57;;;;;;;2.33;1.70;;;;;;;20.27;32.86;99188.13;4993596;28;20205;-81
2022/04/18 11:28:33;;;;;;;2.03;1.50;;;;;;;20.34;31.62;99182.09;4996937;28;20214;-81
2022/04/18 11:31:11;;;;;;;3.73;1.50;;;;;;;20.36;31.58;99175.53;4977310;28;20189;-81
2022/04/18 11:33:43;;;;;;;3.47;1.70;;;;;;;20.31;32.45;99175.19;4974092;28;20611;-80
2022/04/18 11:36:16;;;;;;;3.80;1.60;;;;;;;20.25;33.28;99167.75;4966549;28;20744;-80
2022/04/18 11:38:49;;;;;;;2.20;1.70;;;;;;;20.21;33.56;99169.94;4975278;28;20210;-81
2022/04/18 11:41:20;;;;;;;1.93;1.60;;;;;;;20.38;33.19;99167.34;4890970;29;20239;-81
2022/04/18 11:43:59;;;;;;;2.63;1.70;;;;;;;20.53;31.82;99163.06;4901761;29;20224;-82
2022/04/18 11:46:48;;;;;;;3.13;1.50;;;;;;;19.81;31.99;99158.91;4929219;28;20197;-81
2022/04/18 11:49:28;;;;;;;2.40;1.50;;;;;;;20.17;33.28;99165.00;4937000;28;20207;-81
2022/04/18 11:51:58;;;;;;;1.97;1.30;;;;;;;20.14;32.82;99162.66;4936920;29;20684;-82
2022/04/18 11:54:29;;;;;;;2.03;1.50;;;;;;;20.81;32.53;99147.50;4927251;29;20193;-81
2022/04/18 11:57:03;;;;;;;3.20;2.10;;;;;;;21.10;31.23;99147.91;4933569;28;20680;-81
2022/04/18 11:59:33;;;;;;;4.40;1.40;;;;;;;20.54;30.90;99145.91;4950518;28;20652;-82
2022/04/18 12:07:48;;;;;;;3.67;1.67;;;;;;;20.48;31.40;99142.03;4992259;28;20211;-80
2022/04/18 12:10:25;;;;;;;1.90;1.40;;;;;;;20.17;31.63;99146.19;4990767;28;20278;-82
2022/04/18 12:12:57;;;;;;;3.03;1.50;;;;;;;20.64;31.25;99138.53;4997295;28;20280;-81
2022/04/18 12:15:30;;;;;;;2.07;1.40;;;;;;;21.17;31.11;99128.41;5012304;28;20206;-81
2022/04/18 12:18:14;;;;;;;2.17;1.30;;;;;;;21.13;30.62;99135.97;5009963;28;20198;-81
2022/04/18 12:20:48;;;;;;;3.47;1.43;;;;;;;21.22;29.82;99126.03;5008382;28;20206;-81